Time;durP1;ratioP1;P1;durP2;ratioP2;P2;SDS_P1;SDS_P2;PMS_P1;PMS_P2;Temp;Humidity;BMP_temperature;BMP_pressure;BME280_temperature;BME280_humidity;BME280_pressure;Samples;Min_cycle;Max_cycle;Signal;HPM_P1;HPM_P2
2022/04/01 00:02:17;;;;;;;2.95;1.65;;;;;;;16.86;61.36;94779.41;5115102;28;20055;-31
2022/04/01 00:04:42;;;;;;;1.75;1.33;;;;;;;16.91;60.97;94777.91;5097139;28;20024;-31
2022/04/01 00:07:08;;;;;;;3.78;1.58;;;;;;;16.82;61.21;94771.47;5115256;28;20023;-31
2022/04/01 00:09:34;;;;;;;2.90;1.52;;;;;;;16.75;61.64;94774.75;5115020;28;20046;-31
2022/04/01 00:12:00;;;;;;;3.28;1.80;;;;;;;16.83;61.19;94778.44;5115184;28;20027;-31
2022/04/01 00:14:25;;;;;;;1.73;1.50;;;;;;;16.80;61.06;94765.78;5115160;28;20024;-31
2022/04/01 00:16:51;;;;;;;3.03;1.73;;;;;;;16.81;60.92;94769.97;5115205;28;20024;-31
2022/04/01 00:19:18;;;;;;;2.35;1.50;;;;;;;16.81;61.08;94780.94;5096847;28;20068;-31
2022/04/01 00:21:43;;;;;;;3.95;1.83;;;;;;;16.81;60.99;94772.00;5115109;28;20344;-31
2022/04/01 00:24:09;;;;;;;2.20;1.50;;;;;;;16.79;60.86;94775.25;5114852;28;20030;-31
2022/04/01 00:26:35;;;;;;;3.35;1.73;;;;;;;16.77;60.80;94776.97;5114825;28;20034;-30
2022/04/01 00:29:01;;;;;;;2.95;1.30;;;;;;;16.81;60.37;94778.19;5114705;28;20488;-31
2022/04/01 00:31:26;;;;;;;3.05;1.60;;;;;;;16.75;60.13;94771.28;5114762;28;20031;-31
2022/04/01 00:34:15;;;;;;;2.58;1.58;;;;;;;16.62;60.88;94766.38;5114710;28;20524;-32
2022/04/01 00:36:38;;;;;;;4.40;1.95;;;;;;;16.59;60.76;94770.06;5114558;28;20456;-31
2022/04/01 00:39:03;;;;;;;2.28;1.80;;;;;;;16.64;60.90;94761.13;5128912;27;20034;-30
2022/04/01 00:41:29;;;;;;;2.83;1.77;;;;;;;16.67;60.92;94762.13;5134349;27;20034;-31
2022/04/01 00:44:15;;;;;;;4.45;2.10;;;;;;;16.72;60.56;94766.81;5134961;27;20102;-31
2022/04/01 00:47:03;;;;;;;3.10;1.80;;;;;;;16.70;60.53;94764.56;5135287;27;20062;-31
2022/04/01 00:49:29;;;;;;;5.65;2.30;;;;;;;16.66;60.88;94761.38;5135257;27;20021;-31
2022/04/01 00:51:57;;;;;;;3.33;2.08;;;;;;;16.69;60.18;94757.59;5134924;27;20023;-30
2022/04/01 00:54:23;;;;;;;2.60;2.10;;;;;;;16.66;60.63;94755.91;5134867;27;20023;-31
2022/04/01 00:56:49;;;;;;;2.35;1.70;;;;;;;16.63;60.72;94753.41;5134771;27;20123;-31
2022/04/01 00:59:16;;;;;;;1.95;1.50;;;;;;;16.67;60.43;94762.13;5134891;27;20026;-30
2022/04/01 01:01:45;;;;;;;2.80;1.80;;;;;;;16.61;60.56;94753.91;5116146;27;20876;-31
2022/04/01 01:04:15;;;;;;;3.22;1.90;;;;;;;16.64;60.37;94754.91;5134893;27;20038;-31
2022/04/01 01:06:46;;;;;;;3.28;1.80;;;;;;;16.63;60.52;94751.44;5134643;27;20023;-30
2022/04/01 01:09:14;;;;;;;3.65;2.20;;;;;;;16.64;60.42;94752.91;5134582;27;20467;-31
2022/04/01 01:11:40;;;;;;;2.90;1.90;;;;;;;16.65;60.32;94754.41;5134585;27;20081;-31
2022/04/01 01:14:09;;;;;;;3.30;1.80;;;;;;;16.69;60.12;94752.13;5134558;27;20019;-31
2022/04/01 01:16:35;;;;;;;5.10;2.00;;;;;;;16.68;60.01;94749.91;5134474;27;20030;-31
2022/04/01 01:19:10;;;;;;;3.75;1.88;;;;;;;16.68;60.11;94747.94;5134029;27;20106;-30
2022/04/01 01:21:36;;;;;;;3.63;1.95;;;;;;;16.66;60.15;94755.91;5134136;27;20051;-31
2022/04/01 01:24:07;;;;;;;5.40;1.85;;;;;;;16.61;60.08;94742.19;5134417;27;20048;-31
2022/04/01 01:26:35;;;;;;;2.95;1.77;;;;;;;16.65;59.98;94745.44;5116185;27;20029;-30
2022/04/01 01:29:03;;;;;;;4.03;2.13;;;;;;;16.62;60.29;94739.00;5134554;27;20019;-31
2022/04/01 01:31:29;;;;;;;3.00;2.15;;;;;;;16.64;60.08;94733.00;5134640;27;20463;-30
2022/04/01 01:33:56;;;;;;;4.05;1.83;;;;;;;16.61;60.21;94734.75;5134162;27;20037;-31
2022/04/01 01:36:23;;;;;;;3.67;1.85;;;;;;;16.57;60.22;94728.78;5134154;28;20019;-31
2022/04/01 01:38:49;;;;;;;3.80;2.08;;;;;;;16.59;60.05;94739.22;5134284;28;20092;-31
2022/04/01 01:41:14;;;;;;;4.70;2.28;;;;;;;16.62;60.06;94744.47;5134200;28;20039;-31
2022/04/01 01:43:43;;;;;;;3.47;2.00;;;;;;;16.60;60.18;94737.97;5134225;28;20019;-31
2022/04/01 01:46:10;;;;;;;3.67;2.08;;;;;;;16.58;60.17;94738.47;5134124;28;20027;-31
2022/04/01 01:48:37;;;;;;;2.30;1.65;;;;;;;16.60;59.97;94730.50;5134289;28;20027;-31
2022/04/01 01:56:31;;;;;;;3.55;2.22;;;;;;;16.50;60.39;94718.38;5134230;28;20110;-32
2022/04/01 01:58:57;;;;;;;3.67;1.95;;;;;;;16.57;59.91;94720.56;5134134;28;20050;-31
2022/04/01 02:01:22;;;;;;;3.92;1.90;;;;;;;16.58;59.95;94713.84;5133865;28;20451;-31
2022/04/01 02:03:49;;;;;;;3.03;2.05;;;;;;;16.48;60.54;94712.66;5134206;28;20015;-31
2022/04/01 02:06:15;;;;;;;4.10;2.00;;;;;;;16.52;60.13;94710.41;5115745;28;20071;-31
2022/04/01 02:08:42;;;;;;;3.63;1.90;;;;;;;16.58;59.98;94708.38;5133911;28;20054;-31
2022/04/01 02:11:08;;;;;;;2.40;1.90;;;;;;;16.48;60.54;94704.47;5134003;28;20027;-31
2022/04/01 02:13:34;;;;;;;3.25;2.13;;;;;;;16.52;60.21;94702.94;5133894;28;20074;-30
2022/04/01 02:16:01;;;;;;;3.70;2.30;;;;;;;16.58;59.92;94702.91;5134240;28;20478;-31
2022/04/01 02:18:27;;;;;;;4.05;2.10;;;;;;;16.55;59.90;94698.47;5133876;28;20087;-31
2022/04/01 02:20:53;;;;;;;3.92;2.42;;;;;;;16.56;59.86;94691.00;5133780;28;20152;-30
2022/04/01 02:23:19;;;;;;;5.05;2.40;;;;;;;16.55;59.73;94690.25;5133960;28;20047;-31
2022/04/01 02:25:44;;;;;;;4.35;2.28;;;;;;;16.46;59.96;94690.53;5134138;28;20031;-32
2022/04/01 02:28:10;;;;;;;5.75;2.40;;;;;;;16.40;60.27;94698.06;5133717;28;20031;-31
2022/04/01 02:30:36;;;;;;;3.72;2.17;;;;;;;16.35;60.36;94691.34;5115457;27;20027;-31
2022/04/01 02:33:02;;;;;;;4.53;2.47;;;;;;;16.39;60.20;94688.34;5137469;27;20030;-31
2022/04/01 02:35:28;;;;;;;6.47;2.95;;;;;;;16.39;60.08;94688.34;5118959;27;20016;-30
2022/04/01 02:37:55;;;;;;;5.97;2.35;;;;;;;16.41;60.08;94691.34;5119097;27;20436;-31
2022/04/01 02:40:20;;;;;;;4.43;2.40;;;;;;;16.38;59.81;94690.34;5137446;27;20019;-31
2022/04/01 02:42:46;;;;;;;4.70;2.45;;;;;;;16.33;60.10;94687.63;5137534;27;20050;-31
2022/04/01 02:45:13;;;;;;;3.75;2.17;;;;;;;16.36;60.12;94687.38;5137182;27;20026;-31
2022/04/01 02:47:40;;;;;;;4.05;2.55;;;;;;;16.38;59.87;94686.88;5137318;27;20053;-31
2022/04/01 02:50:07;;;;;;;5.13;2.30;;;;;;;16.31;60.36;94692.88;5137168;27;20023;-31
2022/04/01 02:52:33;;;;;;;5.97;2.10;;;;;;;16.38;60.11;94676.66;5137432;27;20026;-31
2022/04/01 02:54:58;;;;;;;5.18;2.53;;;;;;;16.34;60.36;94678.91;5136918;27;20520;-31
2022/04/01 02:57:24;;;;;;;4.78;2.70;;;;;;;16.33;60.31;94684.88;5137194;27;20110;-31
2022/04/01 02:59:50;;;;;;;4.20;2.47;;;;;;;16.37;60.35;94686.13;5137115;27;20027;-31
2022/04/01 03:02:15;;;;;;;6.22;2.40;;;;;;;16.40;60.19;94689.84;5136881;27;20035;-31
2022/04/01 03:04:42;;;;;;;9.02;3.13;;;;;;;16.32;60.44;94688.91;5137001;27;20386;-31
2022/04/01 03:07:07;;;;;;;4.85;2.38;;;;;;;16.27;60.25;94692.41;5136941;27;20015;-31
2022/04/01 03:09:33;;;;;;;8.23;2.83;;;;;;;16.20;60.89;94692.91;5136896;27;20379;-31
2022/04/01 03:12:00;;;;;;;8.52;2.63;;;;;;;16.20;60.96;94688.19;5136763;27;20034;-31
2022/04/01 03:14:26;;;;;;;8.25;2.70;;;;;;;16.17;60.72;94692.69;5136833;27;20026;-31
2022/04/01 03:16:52;;;;;;;6.30;2.67;;;;;;;16.19;60.79;94689.47;5136689;27;20023;-31
2022/04/01 03:19:19;;;;;;;10.00;3.33;;;;;;;16.16;61.05;94693.19;5136583;27;20023;-32
2022/04/01 03:21:45;;;;;;;9.85;3.50;;;;;;;16.20;61.10;94690.19;5118222;27;20031;-31
2022/04/01 03:24:11;;;;;;;9.65;3.17;;;;;;;16.22;61.01;94698.63;5136612;27;20041;-31
2022/04/01 03:26:38;;;;;;;10.52;3.33;;;;;;;16.17;60.94;94689.22;5136508;27;20098;-32
2022/04/01 03:29:06;;;;;;;7.88;2.78;;;;;;;16.19;60.99;94683.25;5136712;27;20019;-31
2022/04/01 03:31:32;;;;;;;9.05;4.05;;;;;;;16.09;61.43;94688.25;5136451;27;20026;-30
2022/04/01 03:33:58;;;;;;;10.95;3.30;;;;;;;16.18;60.93;94679.78;5136224;27;20099;-31
2022/04/01 03:36:24;;;;;;;12.25;3.17;;;;;;;16.15;61.15;94673.31;5136482;27;20102;-31
2022/04/01 03:38:50;;;;;;;7.55;3.33;;;;;;;16.23;60.93;94675.50;5136284;27;20102;-31
2022/04/01 03:41:16;;;;;;;13.65;4.18;;;;;;;16.16;60.94;94669.34;5136349;27;20111;-31
2022/04/01 03:43:42;;;;;;;14.77;3.83;;;;;;;16.22;61.03;94669.28;5135243;27;20011;-31
2022/04/01 03:46:10;;;;;;;16.17;4.50;;;;;;;16.29;60.86;94662.56;5136173;27;20451;-31
2022/04/01 03:48:38;;;;;;;10.38;3.55;;;;;;;16.15;61.50;94664.38;5136220;27;20050;-30
2022/04/01 03:51:04;;;;;;;14.30;3.97;;;;;;;16.17;61.29;94667.34;5136136;27;20043;-31
2022/04/01 03:53:32;;;;;;;10.95;3.75;;;;;;;16.16;61.35;94672.06;5135806;27;20455;-30
2022/04/01 03:56:00;;;;;;;12.35;3.72;;;;;;;16.20;61.05;94673.78;5136047;27;20027;-32
2022/04/01 03:58:30;;;;;;;11.70;4.00;;;;;;;16.18;61.15;94668.84;5136063;27;20455;-31
2022/04/01 04:01:04;;;;;;;7.63;3.53;;;;;;;16.18;61.33;94668.84;5135931;27;20019;-32
2022/04/01 04:03:29;;;;;;;;;;;;;;;16.25;60.73;94670.28;5136208;27;20122;-31
2022/04/01 04:05:57;;;;;;;10.93;3.55;;;;;;;16.12;61.28;94668.09;5135779;27;19954;-31
2022/04/01 04:08:24;;;;;;;9.93;3.83;;;;;;;16.05;61.96;94671.38;5135605;27;20385;-31
2022/04/01 04:10:51;;;;;;;14.13;4.20;;;;;;;16.01;61.63;94659.94;5135898;27;20356;-31
2022/04/01 04:13:18;;;;;;;14.63;4.40;;;;;;;15.99;62.09;94663.19;5135604;27;20022;-31
2022/04/01 04:16:15;;;;;;;10.35;3.50;;;;;;;16.02;61.79;94662.19;5135654;27;20408;-31
2022/04/01 04:18:48;;;;;;;11.48;4.55;;;;;;;16.04;61.60;94659.69;5128139;27;20122;-30
2022/04/01 04:21:29;;;;;;;12.40;3.70;;;;;;;16.07;61.77;94658.66;5135578;27;20088;-31
2022/04/01 04:23:58;;;;;;;13.95;4.15;;;;;;;16.00;61.64;94653.75;5135585;27;20023;-30
2022/04/01 04:26:38;;;;;;;11.93;3.65;;;;;;;16.00;61.70;94656.47;5135691;27;20023;-31
2022/04/01 04:29:12;;;;;;;13.80;5.10;;;;;;;16.01;61.81;94666.16;5135299;27;20023;-30
2022/04/01 04:31:43;;;;;;;12.25;3.85;;;;;;;16.01;61.91;94660.69;5135192;27;20531;-32
2022/04/01 04:34:10;;;;;;;9.43;3.58;;;;;;;15.99;61.89;94665.19;5135219;27;20027;-30
2022/04/01 04:36:38;;;;;;;15.40;4.03;;;;;;;15.88;62.25;94663.25;5135298;27;20019;-31
2022/04/01 04:39:06;;;;;;;12.10;4.18;;;;;;;15.78;62.44;94672.97;5135155;27;20045;-31
2022/04/01 04:41:33;;;;;;;10.63;3.90;;;;;;;15.86;62.28;94675.91;5135118;27;20023;-30
2022/04/01 04:43:59;;;;;;;9.98;3.60;;;;;;;15.71;62.78;94671.50;5134943;27;20027;-30
2022/04/01 04:46:27;;;;;;;13.32;4.75;;;;;;;15.88;62.08;94671.44;5135379;27;20015;-31
2022/04/01 04:48:54;;;;;;;11.77;3.67;;;;;;;15.88;61.91;94673.44;5134952;27;20490;-31
2022/04/01 04:51:30;;;;;;;13.32;4.20;;;;;;;15.97;61.71;94668.41;5134977;27;20051;-30
2022/04/01 04:53:59;;;;;;;12.68;4.07;;;;;;;15.85;62.24;94672.44;5134661;27;20027;-31
2022/04/01 04:56:26;;;;;;;17.25;4.68;;;;;;;15.91;61.95;94678.66;5134991;27;20054;-30
2022/04/01 04:58:54;;;;;;;13.50;4.07;;;;;;;15.95;61.99;94673.63;5134869;27;20069;-31
2022/04/01 05:01:31;;;;;;;11.90;3.70;;;;;;;15.86;62.20;94679.41;5134897;27;20027;-31
2022/04/01 05:04:06;;;;;;;14.82;3.83;;;;;;;15.88;61.99;94674.16;5134641;27;20028;-31
2022/04/01 05:06:47;;;;;;;14.02;3.97;;;;;;;15.81;62.29;94677.44;5134783;27;20075;-31
2022/04/01 05:09:23;;;;;;;12.88;3.67;;;;;;;15.78;62.57;94681.19;5134741;27;20110;-30
2022/04/01 05:12:05;;;;;;;14.68;4.20;;;;;;;15.79;62.25;94679.94;5119337;27;20039;-30
2022/04/01 05:15:01;;;;;;;14.27;4.13;;;;;;;15.78;62.35;94678.44;5132545;27;20047;-30
2022/04/01 05:17:36;;;;;;;13.13;4.07;;;;;;;15.86;62.12;94678.66;5118413;27;20027;-30
2022/04/01 05:20:11;;;;;;;10.57;3.53;;;;;;;15.82;62.31;94686.38;5111819;28;20027;-30
2022/04/01 05:22:55;;;;;;;12.20;3.90;;;;;;;15.88;62.18;94690.56;5111635;28;20023;-31
2022/04/01 05:25:24;;;;;;;15.95;4.10;;;;;;;15.82;62.33;94691.84;5111666;28;20023;-31
2022/04/01 05:27:53;;;;;;;9.32;3.97;;;;;;;15.84;62.26;94697.53;5111858;28;20092;-31
2022/04/01 05:30:23;;;;;;;12.13;4.00;;;;;;;15.94;62.08;94699.50;5131686;27;20053;-31
2022/04/01 05:33:24;;;;;;;16.30;5.25;;;;;;;15.92;61.88;94701.25;5132438;27;20024;-30
2022/04/01 05:35:51;;;;;;;16.45;5.82;;;;;;;15.84;62.11;94700.28;5127868;27;20039;-31
2022/04/01 05:38:21;;;;;;;19.30;7.18;;;;;;;15.96;61.68;94707.94;5132199;28;20027;-30
2022/04/01 05:40:49;;;;;;;23.05;8.13;;;;;;;15.93;61.85;94702.75;5132150;28;20078;-31
2022/04/01 05:43:15;;;;;;;20.10;9.48;;;;;;;15.98;61.81;94699.97;5130597;28;20045;-31
2022/04/01 05:45:45;;;;;;;24.42;8.63;;;;;;;15.91;61.95;94711.44;5127302;28;20482;-30
2022/04/01 05:48:11;;;;;;;23.65;9.40;;;;;;;15.82;62.33;94705.53;5113568;28;20372;-31
2022/04/01 05:50:38;;;;;;;26.15;9.82;;;;;;;15.80;62.47;94706.03;5132006;28;20015;-31
2022/04/01 05:53:05;;;;;;;28.00;11.75;;;;;;;15.66;62.84;94705.06;5131960;28;20034;-30
2022/04/01 05:55:34;;;;;;;29.38;10.38;;;;;;;15.73;62.83;94701.06;5132250;28;20027;-30
2022/04/01 05:58:04;;;;;;;23.95;10.73;;;;;;;15.75;62.57;94698.56;5113264;28;20034;-31
2022/04/01 06:00:58;;;;;;;26.30;10.68;;;;;;;15.60;62.94;94707.06;5131888;28;20019;-30
2022/04/01 06:03:39;;;;;;;22.90;9.82;;;;;;;15.63;62.72;94699.84;5118222;28;20047;-30
2022/04/01 06:06:20;;;;;;;22.67;9.20;;;;;;;15.68;62.96;94704.56;5104007;27;20022;-30
2022/04/01 06:09:07;;;;;;;28.25;10.68;;;;;;;15.58;63.13;94706.09;5134858;27;20018;-31
2022/04/01 06:11:37;;;;;;;23.38;9.30;;;;;;;15.72;62.64;94711.25;5133808;27;20034;-31
2022/04/01 06:14:34;;;;;;;22.83;9.88;;;;;;;15.73;62.66;94706.53;5135873;27;20019;-30
2022/04/01 06:17:08;;;;;;;22.85;8.35;;;;;;;15.71;62.61;94720.69;5136025;27;20520;-31
2022/04/01 06:19:46;;;;;;;20.55;8.05;;;;;;;15.72;62.75;94710.50;5135898;27;20031;-31
2022/04/01 06:22:20;;;;;;;20.60;6.90;;;;;;;15.72;62.65;94715.97;5135867;27;20030;-31
2022/04/01 06:24:51;;;;;;;19.08;6.63;;;;;;;15.74;62.44;94718.94;5136185;27;20019;-31
2022/04/01 06:27:39;;;;;;;15.68;6.10;;;;;;;15.78;62.61;94708.50;5135991;27;20467;-31
2022/04/01 06:30:08;;;;;;;13.90;6.10;;;;;;;15.78;62.35;94724.91;5135911;27;20019;-30
2022/04/01 06:32:55;;;;;;;13.80;5.57;;;;;;;15.45;63.44;94720.94;5136104;27;20031;-30
2022/04/01 06:35:30;;;;;;;13.90;5.13;;;;;;;15.38;63.98;94724.22;5135255;27;20027;-30
2022/04/01 06:37:58;;;;;;;19.98;5.38;;;;;;;15.64;63.10;94726.69;5135689;27;20044;-30
2022/04/01 06:40:29;;;;;;;17.15;4.78;;;;;;;15.66;62.85;94720.72;5135450;27;20026;-30
2022/04/01 06:42:55;;;;;;;18.17;5.18;;;;;;;15.74;62.41;94727.16;5135521;27;20110;-32
2022/04/01 06:45:21;;;;;;;13.45;5.00;;;;;;;15.73;62.71;94712.00;5135322;27;20047;-31
2022/04/01 06:47:47;;;;;;;20.25;4.68;;;;;;;15.62;62.71;94714.75;5133739;27;20420;-31
2022/04/01 06:50:20;;;;;;;16.15;4.53;;;;;;;15.49;63.24;94717.22;5135542;27;20102;-31
2022/04/01 06:52:46;;;;;;;19.27;4.80;;;;;;;15.53;63.17;94715.00;5135491;27;20086;-30
2022/04/01 06:55:12;;;;;;;21.13;4.47;;;;;;;15.53;62.94;94718.47;5135158;27;20039;-31
2022/04/01 06:57:38;;;;;;;13.02;3.95;;;;;;;15.59;62.89;94734.88;5116734;27;20428;-30
2022/04/01 07:00:08;;;;;;;11.65;4.28;;;;;;;15.65;62.50;94727.41;5135149;27;20030;-31
2022/04/01 07:02:35;;;;;;;13.18;3.90;;;;;;;15.64;62.68;94723.19;5134975;27;20077;-31
2022/04/01 07:05:02;;;;;;;14.00;4.18;;;;;;;15.39;63.20;94733.88;5111795;28;20030;-31
2022/04/01 07:07:28;;;;;;;16.38;4.93;;;;;;;15.58;62.69;94728.66;5095978;28;20031;-30
2022/04/01 07:09:53;;;;;;;15.07;4.40;;;;;;;15.62;62.56;94733.88;5113995;28;20031;-31
2022/04/01 07:12:19;;;;;;;13.73;5.00;;;;;;;15.52;62.77;94727.16;5114289;28;20088;-31
2022/04/01 07:14:45;;;;;;;11.93;4.40;;;;;;;15.52;62.83;94732.63;5095997;28;20502;-31
2022/04/01 07:17:11;;;;;;;14.50;5.13;;;;;;;15.62;62.28;94726.44;5112809;28;20102;-31
2022/04/01 07:19:37;;;;;;;16.35;5.35;;;;;;;15.78;61.76;94736.59;5095659;28;20031;-31
2022/04/01 07:22:03;;;;;;;14.98;4.57;;;;;;;15.66;61.96;94745.31;5113427;28;20053;-30
2022/04/01 07:24:32;;;;;;;14.57;5.00;;;;;;;15.76;61.71;94746.53;5114273;28;20077;-31
2022/04/01 07:26:57;;;;;;;12.73;4.00;;;;;;;15.75;61.70;94750.50;5095648;28;20035;-31
2022/04/01 07:29:23;;;;;;;15.35;4.10;;;;;;;15.44;62.61;94752.28;5114059;28;20035;-31
2022/04/01 07:34:37;;;;;;;10.52;4.13;;;;;;;15.66;61.94;94765.19;5113600;28;20030;-32
2022/04/01 07:37:03;;;;;;;13.95;4.05;;;;;;;15.76;61.55;94750.00;5113729;28;20028;-31
2022/04/01 07:39:29;;;;;;;15.45;4.80;;;;;;;15.70;61.61;94756.75;5113972;28;20107;-31
2022/04/01 07:41:54;;;;;;;11.68;3.55;;;;;;;15.55;61.15;94761.72;5113690;28;20020;-31
2022/04/01 07:44:22;;;;;;;16.33;3.65;;;;;;;15.52;61.77;94749.78;5129449;27;20031;-31
2022/04/01 07:46:48;;;;;;;10.88;3.30;;;;;;;15.58;61.96;94761.44;5136036;27;20391;-31
2022/04/01 07:49:14;;;;;;;12.65;3.50;;;;;;;15.60;61.83;94769.91;5117523;27;20026;-31
2022/04/01 07:51:40;;;;;;;11.85;3.53;;;;;;;15.74;61.21;94768.13;5135937;27;20054;-31
2022/04/01 07:54:06;;;;;;;9.30;3.10;;;;;;;15.68;61.32;94761.97;5136271;27;20092;-31
2022/04/01 07:56:32;;;;;;;13.10;3.42;;;;;;;15.66;61.34;94769.91;5135417;27;20098;-31
2022/04/01 07:58:58;;;;;;;11.73;4.13;;;;;;;14.71;63.80;94759.66;5135579;27;20033;-32
2022/04/01 08:01:24;;;;;;;9.63;3.28;;;;;;;15.15;61.89;94763.69;5135801;27;20019;-31
2022/04/01 08:03:49;;;;;;;14.32;3.67;;;;;;;15.21;61.43;94763.69;5135907;27;20019;-31
2022/04/01 08:06:15;;;;;;;17.50;4.10;;;;;;;15.24;61.35;94782.56;5135900;27;20023;-31
2022/04/01 08:08:41;;;;;;;15.05;3.33;;;;;;;15.29;60.68;94768.16;5135927;27;20025;-31
2022/04/01 08:11:06;;;;;;;12.65;3.75;;;;;;;15.24;60.80;94766.16;5135667;27;20027;-32
2022/04/01 08:13:33;;;;;;;11.93;3.50;;;;;;;15.48;59.71;94762.19;5135655;27;20070;-31
2022/04/01 08:15:59;;;;;;;15.15;4.25;;;;;;;15.45;59.96;94770.13;5135850;27;20019;-31
2022/04/01 08:18:25;;;;;;;12.63;4.20;;;;;;;15.42;60.10;94776.59;5135540;27;20015;-31
2022/04/01 08:20:51;;;;;;;12.38;4.07;;;;;;;15.59;59.38;94773.13;5135500;27;20020;-31
2022/04/01 08:23:19;;;;;;;19.10;4.82;;;;;;;15.52;59.45;94779.81;5135437;27;20088;-31
2022/04/01 08:25:45;;;;;;;14.27;3.67;;;;;;;15.50;59.58;94778.81;5135432;27;20018;-31
2022/04/01 08:28:10;;;;;;;16.25;4.05;;;;;;;15.40;59.47;94778.34;5135461;27;20071;-31
2022/04/01 08:30:36;;;;;;;12.55;3.70;;;;;;;15.24;60.17;94795.47;5135100;27;20098;-31
2022/04/01 08:33:02;;;;;;;13.20;3.33;;;;;;;15.29;59.70;94787.28;5135407;27;20035;-31
2022/04/01 08:35:28;;;;;;;12.38;3.55;;;;;;;15.46;58.98;94784.53;5116906;27;20019;-31
2022/04/01 08:37:55;;;;;;;12.07;4.40;;;;;;;15.45;59.08;94796.72;5135195;27;20023;-31
2022/04/01 08:40:21;;;;;;;13.98;3.65;;;;;;;15.37;59.04;94793.72;5135141;27;20038;-31
2022/04/01 08:42:47;;;;;;;16.92;3.88;;;;;;;15.38;59.07;94786.28;5135206;27;20361;-31
2022/04/01 08:45:17;;;;;;;11.65;4.00;;;;;;;15.09;59.79;94814.81;5134966;27;20027;-31
2022/04/01 08:47:42;;;;;;;12.85;3.50;;;;;;;15.24;59.15;94800.94;5135034;27;20386;-31
2022/04/01 08:50:09;;;;;;;10.75;4.20;;;;;;;15.30;58.95;94812.63;5134985;27;20097;-31
2022/04/01 08:52:34;;;;;;;13.38;4.25;;;;;;;15.38;58.46;94813.59;5135000;27;20056;-31
2022/04/01 08:55:06;;;;;;;15.95;4.40;;;;;;;15.40;58.59;94811.13;5134762;27;20023;-31
2022/04/01 08:57:36;;;;;;;12.65;4.85;;;;;;;15.31;58.81;94831.25;5134897;27;20023;-31
2022/04/01 09:00:22;;;;;;;16.45;4.72;;;;;;;15.23;59.05;94816.56;5134674;27;20023;-31
2022/04/01 09:03:08;;;;;;;13.13;4.88;;;;;;;15.34;58.40;94824.03;5134473;27;20047;-30
2022/04/01 09:05:34;;;;;;;17.95;4.68;;;;;;;15.39;58.22;94826.75;5134873;27;20011;-31
2022/04/01 09:08:05;;;;;;;18.35;4.55;;;;;;;15.43;58.01;94816.34;5116151;27;20050;-31
2022/04/01 09:10:48;;;;;;;13.93;4.78;;;;;;;15.30;58.33;94820.81;5116261;27;20462;-31
2022/04/01 09:13:13;;;;;;;17.92;5.00;;;;;;;15.29;58.48;94838.44;5134699;27;20023;-31
2022/04/01 09:15:41;;;;;;;13.95;4.85;;;;;;;15.01;58.96;94841.13;5134456;27;20039;-32
2022/04/01 09:18:07;;;;;;;17.33;5.20;;;;;;;15.00;58.90;94839.63;5134470;27;20026;-31
2022/04/01 09:20:50;;;;;;;15.43;4.45;;;;;;;15.20;57.79;94827.75;5134868;27;20020;-31
2022/04/01 09:23:23;;;;;;;11.60;4.97;;;;;;;15.35;57.44;94828.25;5134745;27;20490;-31
2022/04/01 09:25:51;;;;;;;16.83;4.93;;;;;;;15.32;57.62;94845.63;5134535;27;20372;-31
2022/04/01 09:28:27;;;;;;;13.27;4.47;;;;;;;15.37;57.33;94836.69;5134413;27;20019;-31
2022/04/01 09:31:14;;;;;;;20.77;4.50;;;;;;;15.09;58.15;94836.66;5134228;27;20483;-32
2022/04/01 09:33:39;;;;;;;14.85;5.30;;;;;;;15.31;57.42;94842.16;5134389;27;20030;-32
2022/04/01 09:36:09;;;;;;;16.52;4.47;;;;;;;15.08;57.75;94843.38;5134433;27;20023;-31
2022/04/01 09:38:36;;;;;;;13.90;4.65;;;;;;;15.23;57.40;94854.78;5115871;28;20101;-31
2022/04/01 09:41:04;;;;;;;12.45;4.28;;;;;;;15.15;57.37;94858.53;5133347;27;20023;-31
2022/04/01 09:43:34;;;;;;;17.33;4.18;;;;;;;15.10;57.67;94846.34;5132107;28;20031;-31
2022/04/01 09:46:04;;;;;;;11.13;3.65;;;;;;;15.18;57.49;94844.63;5133314;28;20426;-31
2022/04/01 09:48:39;;;;;;;15.02;4.35;;;;;;;15.07;57.67;94848.09;5115634;28;20030;-31
2022/04/01 09:51:04;;;;;;;15.52;4.30;;;;;;;14.97;58.04;94841.34;5115718;28;20432;-31
2022/04/01 09:53:30;;;;;;;10.07;4.32;;;;;;;15.13;57.41;94841.88;5134167;28;20138;-30
2022/04/01 09:55:57;;;;;;;12.30;4.13;;;;;;;15.28;56.99;94839.66;5115890;28;20019;-31
2022/04/01 09:58:23;;;;;;;13.63;4.38;;;;;;;15.28;56.88;94845.88;5134101;28;20027;-31
2022/04/01 10:00:49;;;;;;;15.07;3.88;;;;;;;15.19;57.05;94848.84;5115755;28;20023;-31
2022/04/01 10:03:16;;;;;;;11.52;3.95;;;;;;;15.27;56.93;94830.72;5133890;28;20407;-31
2022/04/01 10:05:42;;;;;;;12.57;3.90;;;;;;;15.41;56.38;94831.75;5134123;28;20475;-31
2022/04/01 10:08:09;;;;;;;13.32;4.20;;;;;;;15.49;56.38;94834.72;5134055;28;20436;-32
2022/04/01 10:10:36;;;;;;;7.88;3.63;;;;;;;15.48;56.32;94841.41;5115426;28;20027;-31
2022/04/01 10:13:05;;;;;;;11.57;4.22;;;;;;;15.35;56.59;94837.19;5134159;28;20466;-31
2022/04/01 10:15:32;;;;;;;9.15;3.60;;;;;;;15.21;56.81;94843.63;5133930;28;20027;-30
2022/04/01 10:17:59;;;;;;;11.43;4.07;;;;;;;15.14;56.96;94844.13;5133922;28;20102;-31
2022/04/01 10:20:35;;;;;;;15.20;4.03;;;;;;;14.95;57.23;94843.84;5133980;28;20019;-31
2022/04/01 10:23:06;;;;;;;13.52;3.97;;;;;;;14.97;57.23;94840.59;5133949;28;20382;-31
2022/04/01 10:25:51;;;;;;;14.02;4.10;;;;;;;15.09;57.08;94848.31;5133707;28;20011;-31
2022/04/01 10:28:20;;;;;;;11.32;4.13;;;;;;;15.13;56.74;94837.16;5115507;28;20023;-31
2022/04/01 10:30:57;;;;;;;9.27;3.13;;;;;;;15.19;56.67;94835.19;5133903;28;20065;-31
2022/04/01 10:33:31;;;;;;;13.18;3.60;;;;;;;15.23;56.58;94837.66;5133675;28;20019;-31
2022/04/01 10:35:57;;;;;;;14.82;4.40;;;;;;;15.38;56.01;94830.00;5133874;28;20483;-31
2022/04/01 10:38:31;;;;;;;15.95;3.88;;;;;;;15.16;57.11;94841.66;5133693;28;20054;-31
2022/04/01 10:41:08;;;;;;;10.95;3.45;;;;;;;15.22;56.80;94839.66;5133854;28;20387;-31
2022/04/01 10:43:40;;;;;;;13.82;4.18;;;;;;;14.20;58.76;94841.78;5133678;28;20015;-31
2022/04/01 10:46:10;;;;;;;10.85;3.33;;;;;;;14.60;58.92;94830.56;5133709;28;20026;-30
2022/04/01 10:51:39;;;;;;;13.18;4.10;;;;;;;14.95;57.45;94835.66;5134095;27;20027;-31
2022/04/01 10:54:14;;;;;;;15.18;4.57;;;;;;;14.96;57.60;94828.22;5118756;27;20023;-31
2022/04/01 10:56:43;;;;;;;15.40;4.05;;;;;;;14.99;57.22;94827.22;5137307;27;20031;-31
2022/04/01 10:59:09;;;;;;;9.77;3.80;;;;;;;14.98;57.20;94831.91;5137200;27;20102;-31
2022/04/01 11:01:57;;;;;;;13.18;3.75;;;;;;;14.82;57.20;94835.38;5137188;27;20123;-32
2022/04/01 11:04:29;;;;;;;10.15;3.08;;;;;;;15.12;56.42;94849.31;5136457;27;20071;-32
2022/04/01 11:07:14;;;;;;;12.95;4.65;;;;;;;15.10;56.55;94855.28;5137145;27;20475;-31
2022/04/01 11:09:46;;;;;;;11.90;3.60;;;;;;;14.81;57.08;94822.22;5118643;27;20301;-31
2022/04/01 11:12:15;;;;;;;15.10;3.47;;;;;;;15.26;55.53;94840.16;5137072;27;20022;-31
2022/04/01 11:17:28;;;;;;;13.05;3.92;;;;;;;15.11;55.63;94834.19;5137112;27;20062;-33
2022/04/01 11:20:00;;;;;;;15.60;4.00;;;;;;;15.23;55.20;94837.66;5136646;27;20105;-31
2022/04/01 11:22:37;;;;;;;11.65;4.10;;;;;;;15.01;54.48;94833.66;5118409;27;20023;-30
2022/04/01 11:25:22;;;;;;;12.73;3.20;;;;;;;14.77;56.12;94838.06;5118597;27;20451;-31
2022/04/01 11:28:03;;;;;;;11.13;3.25;;;;;;;14.80;55.99;94834.38;5136892;27;20027;-31
2022/04/01 11:30:51;;;;;;;10.50;2.72;;;;;;;15.08;54.66;94832.47;5136727;27;20055;-30
2022/04/01 11:33:21;;;;;;;14.95;4.40;;;;;;;15.03;55.09;94827.72;5120541;27;20031;-31
2022/04/01 11:35:50;;;;;;;35.55;6.97;;;;;;;15.13;54.48;94837.16;5136695;27;20054;-30
2022/04/01 11:38:21;;;;;;;14.93;4.50;;;;;;;15.31;54.03;94838.69;5136601;27;20019;-31
2022/04/01 11:40:49;;;;;;;14.95;4.40;;;;;;;15.35;54.13;94839.16;5136794;27;20022;-31
2022/04/01 11:43:19;;;;;;;13.00;4.47;;;;;;;15.38;53.87;94836.19;5136408;27;20023;-31
2022/04/01 11:45:57;;;;;;;16.83;5.35;;;;;;;15.39;54.09;94829.50;5136729;27;20019;-31
2022/04/01 11:48:34;;;;;;;10.77;4.05;;;;;;;15.14;54.55;94838.66;5136446;27;20054;-31
2022/04/01 11:51:13;;;;;;;13.75;5.43;;;;;;;15.24;54.40;94833.69;5136484;27;20028;-31
2022/04/01 11:53:51;;;;;;;13.02;4.85;;;;;;;15.30;54.26;94829.00;5136341;27;20434;-30
2022/04/01 11:56:19;;;;;;;13.95;4.82;;;;;;;15.33;54.25;94830.75;5136213;27;20019;-30